Map

Track Data

SID SEASON NUMBER BASIN SUBBASIN NAME ISO_TIME NATURE LAT LON WMO_WIND WMO_PRES WMO_AGENCY TRACK_TYPE DIST2LAND LANDFALL IFLAG USA_AGENCY USA_ATCF_ID USA_LAT USA_LON USA_RECORD USA_STATUS USA_WIND USA_PRES USA_SSHS USA_R34_NE USA_R34_SE USA_R34_SW USA_R34_NW USA_R50_NE USA_R50_SE USA_R50_SW USA_R50_NW USA_R64_NE USA_R64_SE USA_R64_SW USA_R64_NW USA_POCI USA_ROCI USA_RMW USA_EYE TOKYO_LAT TOKYO_LON TOKYO_GRADE TOKYO_WIND TOKYO_PRES TOKYO_R50_DIR TOKYO_R50_LONG TOKYO_R50_SHORT TOKYO_R30_DIR TOKYO_R30_LONG TOKYO_R30_SHORT TOKYO_LAND CMA_LAT CMA_LON CMA_CAT CMA_WIND CMA_PRES HKO_LAT HKO_LON HKO_CAT HKO_WIND HKO_PRES NEWDELHI_LAT NEWDELHI_LON NEWDELHI_GRADE NEWDELHI_WIND NEWDELHI_PRES NEWDELHI_CI NEWDELHI_DP NEWDELHI_POCI REUNION_LAT REUNION_LON REUNION_TYPE REUNION_WIND REUNION_PRES REUNION_TNUM REUNION_CI REUNION_RMW REUNION_R34_NE REUNION_R34_SE REUNION_R34_SW REUNION_R34_NW REUNION_R50_NE REUNION_R50_SE REUNION_R50_SW REUNION_R50_NW REUNION_R64_NE REUNION_R64_SE REUNION_R64_SW REUNION_R64_NW BOM_LAT BOM_LON BOM_TYPE BOM_WIND BOM_PRES BOM_TNUM BOM_CI BOM_RMW BOM_R34_NE BOM_R34_SE BOM_R34_SW BOM_R34_NW BOM_R50_NE BOM_R50_SE BOM_R50_SW BOM_R50_NW BOM_R64_NE BOM_R64_SE BOM_R64_SW BOM_R64_NW BOM_ROCI BOM_POCI BOM_EYE BOM_POS_METHOD BOM_PRES_METHOD NADI_LAT NADI_LON NADI_CAT NADI_WIND NADI_PRES WELLINGTON_LAT WELLINGTON_LON WELLINGTON_WIND WELLINGTON_PRES DS824_LAT DS824_LON DS824_STAGE DS824_WIND DS824_PRES TD9636_LAT TD9636_LON TD9636_STAGE TD9636_WIND TD9636_PRES TD9635_LAT TD9635_LON TD9635_WIND TD9635_PRES TD9635_ROCI NEUMANN_LAT NEUMANN_LON NEUMANN_CLASS NEUMANN_WIND NEUMANN_PRES MLC_LAT MLC_LON MLC_CLASS MLC_WIND MLC_PRES USA_GUST BOM_GUST BOM_GUST_PER REUNION_GUST REUNION_GUST_PER USA_SEAHGT USA_SEARAD_NE USA_SEARAD_SE USA_SEARAD_SW USA_SEARAD_NW STORM_SPEED STORM_DIR
1929252S05078 1930 56 SI MM NOT_NAMED 1929-09-09 00:00:00 TS -4.50000 77.5000 main 1215 1215 _________O____ -1 -4.50000 77.5000 TC 25 9 258
1929252S05078 1930 56 SI MM NOT_NAMED 1929-09-09 03:00:00 TS -4.59257 77.0450 main 1242 1242 _________P____ -1 -4.59257 77.0450 TC 25 9 257
1929252S05078 1930 56 SI MM NOT_NAMED 1929-09-09 06:00:00 TS -4.70000 76.6000 main 1267 1267 _________O____ -1 -4.70000 76.6000 TC 25 9 255
1929252S05078 1930 56 SI MM NOT_NAMED 1929-09-09 09:00:00 TS -4.83494 76.1650 main 1293 1293 _________P____ -1 -4.83494 76.1650 TC 25 9 251
1929252S05078 1930 56 SI MM NOT_NAMED 1929-09-09 12:00:00 TS -5.00000 75.7000 main 1334 1334 _________O____ -1 -5.00000 75.7000 TC 25 11 250
1929252S05078 1930 56 SI MM NOT_NAMED 1929-09-09 15:00:00 TS -5.19999 75.1650 main 1377 1377 _________P____ -1 -5.19999 75.1650 TC 25 12 250
1929252S05078 1930 56 SI MM NOT_NAMED 1929-09-09 18:00:00 TS -5.40000 74.6000 main 1425 1425 _________O____ -1 -5.40000 74.6000 TC 25 12 252
1929252S05078 1930 56 SI MM NOT_NAMED 1929-09-09 21:00:00 TS -5.55747 74.0425 main 1476 1476 _________P____ -1 -5.55747 74.0425 TC 25 11 255
1929252S05078 1930 56 SI MM NOT_NAMED 1929-09-10 00:00:00 TS -5.70000 73.5000 main 1513 1513 _________O____ -1 -5.70000 73.5000 TC 25 11 254
1929252S05078 1930 56 SI MM NOT_NAMED 1929-09-10 03:00:00 TS -5.84991 73.0000 main 1551 1551 _________P____ -1 -5.84991 73.0000 TC 25 10 253
1929252S05078 1930 56 SI MM NOT_NAMED 1929-09-10 06:00:00 TS -6.00000 72.5000 main 1599 1599 _________O____ -1 -6.00000 72.5000 TC 25 11 254
1929252S05078 1930 56 SI MM NOT_NAMED 1929-09-10 09:00:00 TS -6.14244 71.9649 main 1639 1639 _________P____ -1 -6.14244 71.9649 TC 25 11 255
1929252S05078 1930 56 SI MM NOT_NAMED 1929-09-10 12:00:00 TS -6.30000 71.4000 main 1696 1696 _________O____ -1 -6.30000 71.4000 TC 25 12 253
1929252S05078 1930 56 SI MM NOT_NAMED 1929-09-10 15:00:00 TS -6.49996 70.8075 main 1753 1753 _________P____ -1 -6.49996 70.8075 TC 25 13 251
1929252S05078 1930 56 SI MM NOT_NAMED 1929-09-10 18:00:00 TS -6.70000 70.2000 main 1812 1812 _________O____ -1 -6.70000 70.2000 TC 25 13 254
1929252S05078 1930 56 SI MM NOT_NAMED 1929-09-10 21:00:00 TS -6.87259 69.5400 main 1878 1878 _________P____ -1 -6.87259 69.5400 TC 25 12 256
1929252S05078 1930 56 SI MM NOT_NAMED 1929-09-11 00:00:00 TS -7.00000 69.0000 main 1907 1884 _________O____ -1 -7.00000 69.0000 TC 25 8 256
1929252S05078 1930 56 SI MM NOT_NAMED 1929-09-11 03:00:00 TS -7.06485 68.7474 main 1877 1870 _________P____ -1 -7.06485 68.7474 TC 25 4 256
1929252S05078 1930 56 SI MM NOT_NAMED 1929-09-11 06:00:00 TS -7.10000 68.6000 main 1870 1857 _________O____ -1 -7.10000 68.6000 TC 25 4 257
1929252S05078 1930 56 SI MM NOT_NAMED 1929-09-11 09:00:00 TS -7.14998 68.3650 main 1857 1828 _________P____ -1 -7.14998 68.3650 TC 25 5 259
1929252S05078 1930 56 SI MM NOT_NAMED 1929-09-11 12:00:00 TS -7.20000 68.1000 main 1828 1808 _________O____ -1 -7.20000 68.1000 TC 25 6 261
1929252S05078 1930 56 SI MM NOT_NAMED 1929-09-11 15:00:00 TS -7.24251 67.8000 main 1808 1780 _________P____ -1 -7.24251 67.8000 TC 25 6 260
1929252S05078 1930 56 SI MM NOT_NAMED 1929-09-11 18:00:00 TS -7.30000 67.5000 main 1780 1752 _________O____ -1 -7.30000 67.5000 TC 25 6 254
1929252S05078 1930 56 SI MM NOT_NAMED 1929-09-11 21:00:00 TS -7.40750 67.2200 main 1752 1730 _________P____ -1 -7.40750 67.2200 TC 25 5 248
1929252S05078 1930 56 SI MM NOT_NAMED 1929-09-12 00:00:00 TS -7.50000 67.0000 main 1730 1724 _________O____ -1 -7.50000 67.0000 TC 25 4 254
1929252S05078 1930 56 SI MM NOT_NAMED 1929-09-12 03:00:00 TS -7.50748 66.8700 main 1724 1718 _________P____ -1 -7.50748 66.8700 TC 25 2 270
1929252S05078 1930 56 SI MM NOT_NAMED 1929-09-12 06:00:00 TS -7.50000 66.8000 main 1718 1711 _________O____ -1 -7.50000 66.8000 TC 25 1 255
1929252S05078 1930 56 SI MM NOT_NAMED 1929-09-12 09:00:00 TS -7.54250 66.7425 main 1711 1702 _________P____ -1 -7.54250 66.7425 TC 25 1 223
1929252S05078 1930 56 SI MM NOT_NAMED 1929-09-12 12:00:00 TS -7.60000 66.7000 main 1702 1702 _________O____ -1 -7.60000 66.7000 TC 25 1 218
1929252S05078 1930 56 SI MM NOT_NAMED 1929-09-12 15:00:00 TS -7.65000 66.6500 main 1702 1687 _________P____ -1 -7.65000 66.6500 TC 25 1 223
1929252S05078 1930 56 SI MM NOT_NAMED 1929-09-12 18:00:00 TS -7.70000 66.6000 main 1687 1687 _________O____ -1 -7.70000 66.6000 TC 25 1 223
1929252S05078 1930 56 SI MM NOT_NAMED 1929-09-12 21:00:00 TS -7.75000 66.5500 main 1687 1671 _________P____ -1 -7.75000 66.5500 TC 25 1 223
1929252S05078 1930 56 SI MM NOT_NAMED 1929-09-13 00:00:00 TS -7.80000 66.5000 main 1671 _________O____ -1 -7.80000 66.5000 TC 25 1 231

About IBTrACS Database

This database is a web-friendly format of International Best Track Archive for Climate Stewardship (IBTrACS), a global best track data archive curated by NOAA dating back to 1842.

Updated: 2021-10-21